createdAt,value
2022-11-20T00:00:05.215Z,90.76
2022-11-20T00:02:06.682Z,90.91
2022-11-20T00:04:09.857Z,90.77
2022-11-20T00:06:17.251Z,90.95
2022-11-20T00:08:18.674Z,91.11
2022-11-20T00:10:20.123Z,90.85
2022-11-20T00:12:21.569Z,90.63
2022-11-20T00:14:23.034Z,90.81
2022-11-20T00:16:26.348Z,91.08
2022-11-20T00:18:28.349Z,90.87
2022-11-20T00:20:29.846Z,91.28
2022-11-20T00:22:31.277Z,91.29
2022-11-20T00:24:32.702Z,91.02
2022-11-20T00:26:34.522Z,91.23
2022-11-20T00:28:35.982Z,90.75
2022-11-20T00:30:37.407Z,90.94
2022-11-20T00:32:38.854Z,90.45
2022-11-20T00:34:40.288Z,90.89
2022-11-20T00:36:41.737Z,90.77
2022-11-20T00:38:43.940Z,91.02
2022-11-20T00:40:45.372Z,90.49
2022-11-20T00:42:46.846Z,90.91
2022-11-20T00:44:48.297Z,90.78
2022-11-20T00:46:49.737Z,90.78
2022-11-20T00:48:51.227Z,91.12
2022-11-20T00:50:53.288Z,91.13
2022-11-20T00:52:54.712Z,90.90
2022-11-20T00:54:56.139Z,91.33
2022-11-20T00:56:57.698Z,91.10
2022-11-20T00:59:01.051Z,91.31
2022-11-20T01:01:03.374Z,91.38
2022-11-20T01:03:04.855Z,91.33
2022-11-20T01:05:06.527Z,91.33
2022-11-20T01:07:08.000Z,91.56
2022-11-20T01:09:13.388Z,90.96
2022-11-20T01:11:24.559Z,91.49
2022-11-20T01:13:38.088Z,90.91
2022-11-20T01:15:39.551Z,91.17
2022-11-20T01:17:40.974Z,91.28
2022-11-20T01:19:42.418Z,91.18
2022-11-20T01:21:45.212Z,91.13
2022-11-20T01:23:48.027Z,90.89
2022-11-20T01:25:49.464Z,91.22
2022-11-20T01:27:50.935Z,91.25
2022-11-20T01:29:55.725Z,91.30
2022-11-20T01:31:59.767Z,91.62
2022-11-20T01:34:03.572Z,91.18
2022-11-20T01:36:06.864Z,91.35
2022-11-20T01:38:08.319Z,91.40
2022-11-20T01:40:10.521Z,90.98
2022-11-20T01:42:30.232Z,90.97
2022-11-20T01:44:55.219Z,90.88
2022-11-20T01:47:04.934Z,91.16
2022-11-20T01:49:21.179Z,91.20
2022-11-20T01:51:28.693Z,91.36
2022-11-20T01:53:34.401Z,91.34
2022-11-20T01:55:40.818Z,91.49
2022-11-20T01:57:45.108Z,91.51
2022-11-20T01:59:58.000Z,91.07
2022-11-20T02:01:59.548Z,90.47
2022-11-20T02:04:02.311Z,90.74
2022-11-20T02:06:15.530Z,90.56
2022-11-20T02:08:18.378Z,90.62
2022-11-20T02:10:19.841Z,90.61
2022-11-20T02:12:40.184Z,90.47
2022-11-20T02:14:41.679Z,90.63
2022-11-20T02:16:48.683Z,90.09
2022-11-20T02:18:51.339Z,90.44
2022-11-20T02:21:04.586Z,90.40
2022-11-20T02:23:13.078Z,90.51
2022-11-20T02:25:15.568Z,90.50
2022-11-20T02:27:17.969Z,90.37
2022-11-20T02:29:43.131Z,90.59
2022-11-20T02:31:44.739Z,89.93
2022-11-20T02:33:46.448Z,90.22
2022-11-20T02:35:48.259Z,90.17
2022-11-20T02:37:52.200Z,89.77
2022-11-20T02:39:53.649Z,90.17
2022-11-20T02:41:56.745Z,89.81
2022-11-20T02:43:58.214Z,89.62
2022-11-20T02:45:59.835Z,89.73
2022-11-20T02:48:01.502Z,90.15
2022-11-20T02:50:04.014Z,89.96
2022-11-20T02:52:05.529Z,90.01
2022-11-20T02:54:07.039Z,89.81
2022-11-20T02:56:08.486Z,89.64
2022-11-20T02:58:10.026Z,89.98
2022-11-20T03:00:12.145Z,89.90
2022-11-20T03:02:13.582Z,89.29
2022-11-20T03:04:15.179Z,89.78
2022-11-20T03:06:17.867Z,89.47
2022-11-20T03:08:19.318Z,89.72
2022-11-20T03:10:20.809Z,89.12
2022-11-20T03:12:22.424Z,89.40
2022-11-20T03:14:23.887Z,89.20
2022-11-20T03:16:25.333Z,89.62
2022-11-20T03:18:29.902Z,89.24
2022-11-20T03:20:32.993Z,89.29
2022-11-20T03:22:34.457Z,89.23
2022-11-20T03:24:36.081Z,88.55
2022-11-20T03:26:37.516Z,89.17
2022-11-20T03:28:39.258Z,89.10
2022-11-20T03:30:40.672Z,88.46
2022-11-20T03:32:42.566Z,88.93
2022-11-20T03:34:44.027Z,88.72
2022-11-20T03:36:45.478Z,88.86
2022-11-20T03:38:48.021Z,88.62
2022-11-20T03:40:49.792Z,88.29
2022-11-20T03:42:51.257Z,88.92
2022-11-20T03:44:52.691Z,88.46
2022-11-20T03:46:54.142Z,88.48
2022-11-20T03:48:55.823Z,88.33
2022-11-20T03:51:15.806Z,88.14
2022-11-20T03:53:17.610Z,88.18
2022-11-20T03:55:19.079Z,88.65
2022-11-20T03:57:20.570Z,88.42
2022-11-20T03:59:22.195Z,88.22
2022-11-20T04:01:26.623Z,88.28
2022-11-20T04:03:28.173Z,88.11
2022-11-20T04:05:29.632Z,88.17
2022-11-20T04:07:31.138Z,88.00
2022-11-20T04:09:32.578Z,87.81
2022-11-20T04:11:36.355Z,87.90
2022-11-20T04:13:38.076Z,88.01
2022-11-20T04:15:39.528Z,87.79
2022-11-20T04:17:41.066Z,87.50
2022-11-20T04:19:42.577Z,87.46
2022-11-20T04:21:45.354Z,87.36
2022-11-20T04:23:46.827Z,87.14
2022-11-20T04:25:48.246Z,86.77
2022-11-20T04:27:49.674Z,87.21
2022-11-20T04:29:51.116Z,87.49
2022-11-20T04:31:52.657Z,87.64
2022-11-20T04:33:54.671Z,87.31
2022-11-20T04:35:56.239Z,87.45
2022-11-20T04:37:57.664Z,87.05
2022-11-20T04:39:59.134Z,87.06
2022-11-20T04:42:19.327Z,87.05
2022-11-20T04:44:20.901Z,86.87
2022-11-20T04:46:22.322Z,87.00
2022-11-20T04:48:25.170Z,86.91
2022-11-20T04:50:26.725Z,86.68
2022-11-20T04:52:28.170Z,86.73
2022-11-20T04:54:29.647Z,87.21
2022-11-20T04:56:31.201Z,86.90
2022-11-20T04:58:33.305Z,86.87
2022-11-20T05:00:35.035Z,86.61
2022-11-20T05:02:36.571Z,87.05
2022-11-20T05:04:38.130Z,87.01
2022-11-20T05:06:39.553Z,86.20
2022-11-20T05:08:42.022Z,86.20
2022-11-20T05:10:43.455Z,86.82
2022-11-20T05:12:44.868Z,86.29
2022-11-20T05:14:46.347Z,87.01
2022-11-20T05:16:48.019Z,86.60
2022-11-20T05:18:50.387Z,86.29
2022-11-20T05:20:56.230Z,86.57
2022-11-20T05:22:58.531Z,86.12
2022-11-20T05:25:00.002Z,86.00
2022-11-20T05:27:01.483Z,85.92
2022-11-20T05:29:03.033Z,85.96
2022-11-20T05:31:06.920Z,85.79
2022-11-20T05:33:08.990Z,86.45
2022-11-20T05:35:10.461Z,85.70
2022-11-20T05:37:11.947Z,86.09
2022-11-20T05:39:13.417Z,85.98
2022-11-20T05:41:17.655Z,86.32
2022-11-20T05:43:19.307Z,86.08
2022-11-20T05:45:20.819Z,86.65
2022-11-20T05:47:23.396Z,86.67
2022-11-20T05:49:24.909Z,86.63
2022-11-20T05:51:27.625Z,86.14
2022-11-20T05:53:29.512Z,86.46
2022-11-20T05:55:30.971Z,86.63
2022-11-20T05:57:32.801Z,86.42
2022-11-20T05:59:34.307Z,86.88
2022-11-20T06:01:37.083Z,86.75
2022-11-20T06:03:39.974Z,86.78
2022-11-20T06:05:41.416Z,86.93
2022-11-20T06:07:42.936Z,86.54
2022-11-20T06:09:44.418Z,86.36
2022-11-20T06:11:45.843Z,86.75
2022-11-20T06:13:47.978Z,86.48
2022-11-20T06:15:54.127Z,86.66
2022-11-20T06:17:56.151Z,86.87
2022-11-20T06:19:57.788Z,86.80
2022-11-20T06:21:59.346Z,87.19
2022-11-20T06:24:00.875Z,87.01
2022-11-20T06:26:07.939Z,86.91
2022-11-20T06:28:10.102Z,87.33
2022-11-20T06:30:12.219Z,86.99
2022-11-20T06:32:13.645Z,86.89
2022-11-20T06:34:15.267Z,87.37
2022-11-20T06:36:19.372Z,86.88
2022-11-20T06:38:20.822Z,87.52
2022-11-20T06:40:22.285Z,87.19
2022-11-20T06:42:23.801Z,87.41
2022-11-20T06:44:25.563Z,86.75
2022-11-20T06:46:27.066Z,86.58
2022-11-20T06:48:29.618Z,86.94
2022-11-20T06:50:31.193Z,87.45
2022-11-20T06:52:32.612Z,86.89
2022-11-20T06:54:34.069Z,87.62
2022-11-20T06:56:35.516Z,87.31
2022-11-20T06:58:37.912Z,87.38
2022-11-20T07:00:39.418Z,87.33
2022-11-20T07:02:40.917Z,87.35
2022-11-20T07:04:42.370Z,87.56
2022-11-20T07:06:43.797Z,87.42
2022-11-20T07:08:45.313Z,86.99
2022-11-20T07:10:46.763Z,87.25
2022-11-20T07:12:52.531Z,87.14
2022-11-20T07:14:53.997Z,87.53
2022-11-20T07:16:56.008Z,87.59
2022-11-20T07:18:57.603Z,87.57
2022-11-20T07:21:03.502Z,87.63
2022-11-20T07:23:05.003Z,87.44
2022-11-20T07:25:07.544Z,87.63
2022-11-20T07:27:09.093Z,87.67
2022-11-20T07:29:10.690Z,87.08
2022-11-20T07:31:18.840Z,87.35
2022-11-20T07:33:21.263Z,86.91
2022-11-20T07:35:23.987Z,87.48
2022-11-20T07:37:25.427Z,87.47
2022-11-20T07:39:26.864Z,88.14
2022-11-20T07:41:28.675Z,87.64
2022-11-20T07:43:30.558Z,87.89
2022-11-20T07:45:32.088Z,88.01
2022-11-20T07:47:37.640Z,87.62
2022-11-20T07:49:39.074Z,88.13
2022-11-20T07:51:40.494Z,87.92
2022-11-20T07:53:41.943Z,87.38
2022-11-20T07:55:43.361Z,87.37
2022-11-20T07:57:45.045Z,87.63
2022-11-20T07:59:47.086Z,87.26
2022-11-20T08:01:48.554Z,86.99
2022-11-20T08:03:50.026Z,86.88
2022-11-20T08:05:51.545Z,87.04
2022-11-20T08:07:53.030Z,87.51
2022-11-20T08:09:54.477Z,87.47
2022-11-20T08:12:14.975Z,87.28
2022-11-20T08:14:16.847Z,87.15
2022-11-20T08:16:18.310Z,87.27
2022-11-20T08:18:35.406Z,86.97
2022-11-20T08:20:36.922Z,86.97
2022-11-20T08:22:38.380Z,86.61
2022-11-20T08:24:39.897Z,86.45
2022-11-20T08:26:42.067Z,86.21
2022-11-20T08:28:43.702Z,86.13
2022-11-20T08:30:46.857Z,86.04
2022-11-20T08:32:48.290Z,85.60
2022-11-20T08:34:49.721Z,85.67
2022-11-20T08:36:51.199Z,85.56
2022-11-20T08:38:55.182Z,85.32
2022-11-20T08:41:19.242Z,84.75
2022-11-20T08:43:20.666Z,84.88
2022-11-20T08:45:22.147Z,84.75
2022-11-20T08:47:23.558Z,85.30
2022-11-20T08:49:25.103Z,84.97
2022-11-20T08:51:26.602Z,84.94
2022-11-20T08:53:28.756Z,84.75
2022-11-20T08:55:30.184Z,84.24
2022-11-20T08:57:36.406Z,84.37
2022-11-20T09:00:04.273Z,84.22
2022-11-20T09:01:59.539Z,84.66
2022-11-20T09:04:01.019Z,84.01
2022-11-20T09:06:04.456Z,84.18
2022-11-20T09:08:06.352Z,84.28
2022-11-20T09:10:25.068Z,84.29
2022-11-20T09:12:26.758Z,84.42
2022-11-20T09:14:30.085Z,84.58
2022-11-20T09:16:31.561Z,84.02
2022-11-20T09:18:33.925Z,83.74
2022-11-20T09:20:35.415Z,84.10
2022-11-20T09:22:40.935Z,84.08
2022-11-20T09:24:43.695Z,84.24
2022-11-20T09:26:45.737Z,84.06
2022-11-20T09:28:47.244Z,83.21
2022-11-20T09:30:48.969Z,82.72
2022-11-20T09:32:50.443Z,83.35
2022-11-20T09:34:51.943Z,83.46
2022-11-20T09:36:53.492Z,83.29
2022-11-20T09:38:55.082Z,83.43
2022-11-20T09:41:05.894Z,83.85
2022-11-20T09:43:34.698Z,84.06
2022-11-20T09:45:46.881Z,83.98
2022-11-20T09:48:10.158Z,84.27
2022-11-20T09:50:37.509Z,84.24
2022-11-20T09:52:50.811Z,84.53
2022-11-20T09:54:54.248Z,84.93
2022-11-20T09:57:06.264Z,85.22
2022-11-20T09:59:15.339Z,85.02
2022-11-20T10:01:19.639Z,85.39
2022-11-20T10:03:37.178Z,85.28
2022-11-20T10:05:45.095Z,85.26
2022-11-20T10:07:56.567Z,85.07
2022-11-20T10:09:58.298Z,85.51
2022-11-20T10:12:18.235Z,85.69
2022-11-20T10:14:41.489Z,85.48
2022-11-20T10:16:57.438Z,85.48
2022-11-20T10:19:04.745Z,85.90
2022-11-20T10:21:12.408Z,86.60
2022-11-20T10:23:25.379Z,86.60
2022-11-20T10:25:56.301Z,87.24
2022-11-20T10:28:13.813Z,86.94
2022-11-20T10:30:17.980Z,86.97
2022-11-20T10:32:23.616Z,87.45
2022-11-20T10:34:34.823Z,87.34
2022-11-20T10:36:43.991Z,87.11
2022-11-20T10:38:58.258Z,87.26
2022-11-20T10:41:22.418Z,86.92
2022-11-20T10:43:34.362Z,86.33
2022-11-20T10:45:41.809Z,86.14
2022-11-20T10:47:43.291Z,85.27
2022-11-20T10:49:49.702Z,85.61
2022-11-20T10:52:18.554Z,85.25
2022-11-20T10:54:37.676Z,84.46
2022-11-20T10:56:46.859Z,84.74
2022-11-20T10:59:06.237Z,84.18
2022-11-20T11:01:20.143Z,84.50
2022-11-20T11:03:31.771Z,84.25
2022-11-20T11:05:41.007Z,83.94
2022-11-20T11:07:43.169Z,83.89
2022-11-20T11:09:50.217Z,82.97
2022-11-20T11:11:52.445Z,82.97
2022-11-20T11:13:53.913Z,82.34
2022-11-20T11:15:56.452Z,82.79
2022-11-20T11:17:58.294Z,81.49
2022-11-20T11:19:59.675Z,81.85
2022-11-20T11:22:01.935Z,80.89
2022-11-20T11:24:27.043Z,81.28
2022-11-20T11:26:26.959Z,80.99
2022-11-20T11:28:29.589Z,80.56
2022-11-20T11:30:42.636Z,80.42
2022-11-20T11:32:44.383Z,80.75
2022-11-20T11:34:46.002Z,80.43
2022-11-20T11:36:57.077Z,79.72
2022-11-20T11:38:58.611Z,79.66
2022-11-20T11:41:00.176Z,79.58
2022-11-20T11:43:05.969Z,79.39
2022-11-20T11:45:07.849Z,78.53
2022-11-20T11:47:32.974Z,78.42
2022-11-20T11:49:34.457Z,79.03
2022-11-20T11:51:48.619Z,79.16
2022-11-20T11:53:51.277Z,78.88
2022-11-20T11:55:59.500Z,77.91
2022-11-20T11:58:20.668Z,77.65
2022-11-20T12:00:23.223Z,77.73
2022-11-20T12:02:33.938Z,78.73
2022-11-20T12:04:56.088Z,78.29
2022-11-20T12:07:44.203Z,80.12
2022-11-20T12:09:42.534Z,81.82
2022-11-20T12:12:17.513Z,83.37
2022-11-20T12:14:27.682Z,84.70
2022-11-20T12:16:34.821Z,85.38
2022-11-20T12:18:36.282Z,85.33
2022-11-20T12:20:51.387Z,85.90
2022-11-20T12:23:01.503Z,86.67
2022-11-20T12:25:07.957Z,87.35
2022-11-20T12:27:24.499Z,87.53
2022-11-20T12:29:49.029Z,88.32
2022-11-20T12:32:02.221Z,88.35
2022-11-20T12:34:19.315Z,89.12
2022-11-20T12:36:31.078Z,89.45
2022-11-20T12:38:41.647Z,88.93
2022-11-20T12:41:04.832Z,89.81
2022-11-20T12:43:46.908Z,89.78
2022-11-20T12:46:23.289Z,89.91
2022-11-20T12:48:44.991Z,89.49
2022-11-20T12:51:16.109Z,88.77
2022-11-20T12:53:35.809Z,88.58
2022-11-20T12:55:53.626Z,88.77
2022-11-20T12:58:02.786Z,89.13
2022-11-20T13:00:14.799Z,88.57
2022-11-20T13:02:16.192Z,88.41
2022-11-20T13:04:47.787Z,87.24
2022-11-20T13:06:50.051Z,86.38
2022-11-20T13:08:59.974Z,86.56
2022-11-20T13:11:17.060Z,85.98
2022-11-20T13:13:43.308Z,85.76
2022-11-20T13:15:53.873Z,85.95
2022-11-20T13:17:57.708Z,85.52
2022-11-20T13:19:59.748Z,85.43
2022-11-20T13:22:01.591Z,85.90
2022-11-20T13:24:07.211Z,86.17
2022-11-20T13:26:19.797Z,86.11
2022-11-20T13:28:21.188Z,85.53
2022-11-20T13:30:24.786Z,85.10
2022-11-20T13:32:28.751Z,85.22
2022-11-20T13:34:31.070Z,85.73
2022-11-20T13:36:33.465Z,86.00
2022-11-20T13:38:47.579Z,86.35
2022-11-20T13:41:21.988Z,86.51
2022-11-20T13:43:30.026Z,86.90
2022-11-20T13:45:33.422Z,87.12
2022-11-20T13:47:36.862Z,87.42
2022-11-20T13:49:49.154Z,86.98
2022-11-20T13:51:54.167Z,87.51
2022-11-20T13:54:07.666Z,87.21
2022-11-20T13:56:24.094Z,86.96
2022-11-20T13:58:49.022Z,87.72
2022-11-20T14:01:02.355Z,87.77
2022-11-20T14:03:06.515Z,87.58
2022-11-20T14:05:20.923Z,88.23
2022-11-20T14:07:26.752Z,88.78
2022-11-20T14:09:35.180Z,88.36
2022-11-20T14:11:36.651Z,88.75
2022-11-20T14:13:38.081Z,88.44
2022-11-20T14:15:44.807Z,87.97
2022-11-20T14:17:46.738Z,87.35
2022-11-20T14:19:51.365Z,87.33
2022-11-20T14:22:07.268Z,87.14
2022-11-20T14:24:12.838Z,87.17
2022-11-20T14:26:21.243Z,87.83
2022-11-20T14:28:28.429Z,88.08
2022-11-20T14:30:41.234Z,88.20
2022-11-20T14:32:44.249Z,87.67
2022-11-20T14:34:48.845Z,88.14
2022-11-20T14:36:55.002Z,87.84
2022-11-20T14:38:56.531Z,87.74
2022-11-20T14:41:20.424Z,87.63
2022-11-20T14:43:27.090Z,87.45
2022-11-20T14:45:29.177Z,87.04
2022-11-20T14:47:32.079Z,86.84
2022-11-20T14:49:34.173Z,86.95
2022-11-20T14:51:42.273Z,86.63
2022-11-20T14:53:43.739Z,86.37
2022-11-20T14:55:45.203Z,86.45
2022-11-20T14:57:56.895Z,87.03
2022-11-20T15:00:28.156Z,86.81
2022-11-20T15:02:31.236Z,86.90
2022-11-20T15:04:32.854Z,86.67
2022-11-20T15:06:34.629Z,86.23
2022-11-20T15:08:36.272Z,86.16
2022-11-20T15:10:39.186Z,86.11
2022-11-20T15:12:52.907Z,86.14
2022-11-20T15:14:54.397Z,86.90
2022-11-20T15:16:56.212Z,86.74
2022-11-20T15:18:57.746Z,86.85
2022-11-20T15:21:03.419Z,86.62
2022-11-20T15:23:12.465Z,86.55
2022-11-20T15:25:15.817Z,86.54
2022-11-20T15:27:17.331Z,86.91
2022-11-20T15:29:19.853Z,86.47
2022-11-20T15:31:24.131Z,86.57
2022-11-20T15:33:25.772Z,86.65
2022-11-20T15:35:27.267Z,86.80
2022-11-20T15:37:30.082Z,86.64
2022-11-20T15:39:31.656Z,87.35
2022-11-20T15:41:33.107Z,86.74
2022-11-20T15:43:34.562Z,86.75
2022-11-20T15:45:42.768Z,86.49
2022-11-20T15:47:44.275Z,86.33
2022-11-20T15:49:45.717Z,86.19
2022-11-20T15:51:50.902Z,86.04
2022-11-20T15:53:52.470Z,85.84
2022-11-20T15:55:54.283Z,85.39
2022-11-20T15:57:55.728Z,85.46
2022-11-20T15:59:57.176Z,85.15
2022-11-20T16:01:58.675Z,85.10
2022-11-20T16:04:01.112Z,85.06
2022-11-20T16:06:02.615Z,85.46
2022-11-20T16:08:08.532Z,86.36
2022-11-20T16:10:11.568Z,86.89
2022-11-20T16:12:35.839Z,87.07
2022-11-20T16:14:55.901Z,87.47
2022-11-20T16:16:57.362Z,87.12
2022-11-20T16:18:59.184Z,86.60
2022-11-20T16:21:00.703Z,86.42
2022-11-20T16:23:02.213Z,86.03
2022-11-20T16:25:03.864Z,86.09
2022-11-20T16:27:05.371Z,85.83
2022-11-20T16:29:07.569Z,85.62
2022-11-20T16:31:11.614Z,85.25
2022-11-20T16:33:16.313Z,85.14
2022-11-20T16:35:17.922Z,85.39
2022-11-20T16:37:19.350Z,85.57
2022-11-20T16:39:23.908Z,85.00
2022-11-20T16:41:26.745Z,85.42
2022-11-20T16:43:28.361Z,85.26
2022-11-20T16:45:33.708Z,85.17
2022-11-20T16:47:35.788Z,84.87
2022-11-20T16:49:37.240Z,84.47
2022-11-20T16:51:38.710Z,84.43
2022-11-20T16:53:40.665Z,84.82
2022-11-20T16:55:42.124Z,84.54
2022-11-20T16:57:43.581Z,84.37
2022-11-20T16:59:45.023Z,84.50
2022-11-20T17:01:46.663Z,84.46
2022-11-20T17:04:01.395Z,84.32
2022-11-20T17:06:02.905Z,83.92
2022-11-20T17:08:04.705Z,83.88
2022-11-20T17:10:06.569Z,84.06
2022-11-20T17:12:08.098Z,83.79
2022-11-20T17:14:11.691Z,83.66
2022-11-20T17:16:21.758Z,83.60
2022-11-20T17:18:23.469Z,83.57
2022-11-20T17:20:25.039Z,83.38
2022-11-20T17:22:26.619Z,83.41
2022-11-20T17:24:31.826Z,83.40
2022-11-20T17:26:34.800Z,83.14
2022-11-20T17:28:37.788Z,83.25
2022-11-20T17:30:39.239Z,83.41
2022-11-20T17:32:45.578Z,83.42
2022-11-20T17:34:47.007Z,83.27
2022-11-20T17:36:48.563Z,83.18
2022-11-20T17:38:50.014Z,83.12
2022-11-20T17:40:51.544Z,83.18
2022-11-20T17:42:52.991Z,83.18
2022-11-20T17:44:54.465Z,83.59
2022-11-20T17:46:55.913Z,83.51
2022-11-20T17:48:57.448Z,83.53
2022-11-20T17:51:03.987Z,83.27
2022-11-20T17:53:05.546Z,83.11
2022-11-20T17:55:07.533Z,83.29
2022-11-20T17:57:27.953Z,83.18
2022-11-20T17:59:29.384Z,82.98
2022-11-20T18:01:30.877Z,83.09
2022-11-20T18:03:32.372Z,83.02
2022-11-20T18:05:33.825Z,83.12
2022-11-20T18:07:40.266Z,83.21
2022-11-20T18:09:43.172Z,82.93
2022-11-20T18:11:45.439Z,83.30
2022-11-20T18:14:07.724Z,83.37
2022-11-20T18:16:09.265Z,84.23
2022-11-20T18:18:10.699Z,84.50
2022-11-20T18:20:30.317Z,84.46
2022-11-20T18:22:32.680Z,84.00
2022-11-20T18:24:36.637Z,83.71
2022-11-20T18:26:43.912Z,83.37
2022-11-20T18:28:46.018Z,83.67
2022-11-20T18:30:47.590Z,83.56
2022-11-20T18:32:50.124Z,83.29
2022-11-20T18:34:51.591Z,83.47
2022-11-20T18:36:53.146Z,83.12
2022-11-20T18:38:56.948Z,83.29
2022-11-20T18:41:03.414Z,82.92
2022-11-20T18:43:24.666Z,83.08
2022-11-20T18:45:26.256Z,83.09
2022-11-20T18:47:30.774Z,83.20
2022-11-20T18:49:32.275Z,83.43
2022-11-20T18:51:33.789Z,84.46
2022-11-20T18:53:36.095Z,84.40
2022-11-20T18:55:37.585Z,84.37
2022-11-20T18:57:39.066Z,84.35
2022-11-20T18:59:42.650Z,84.40
2022-11-20T19:01:44.354Z,84.04
2022-11-20T19:03:46.810Z,83.98
2022-11-20T19:05:48.276Z,83.63
2022-11-20T19:07:49.799Z,83.44
2022-11-20T19:09:53.093Z,83.78
2022-11-20T19:11:54.851Z,83.53
2022-11-20T19:13:56.544Z,83.10
2022-11-20T19:16:05.810Z,83.07
2022-11-20T19:18:07.309Z,82.95
2022-11-20T19:20:09.122Z,82.72
2022-11-20T19:22:10.669Z,82.78
2022-11-20T19:24:12.474Z,82.32
2022-11-20T19:26:14.070Z,81.93
2022-11-20T19:28:15.593Z,82.21
2022-11-20T19:30:17.357Z,82.25
2022-11-20T19:32:18.927Z,82.82
2022-11-20T19:34:20.502Z,83.25
2022-11-20T19:36:25.430Z,83.50
2022-11-20T19:38:26.871Z,83.72
2022-11-20T19:40:28.535Z,83.64
2022-11-20T19:42:30.858Z,83.39
2022-11-20T19:44:33.040Z,83.83
2022-11-20T19:46:36.253Z,84.31
2022-11-20T19:48:38.293Z,84.42
2022-11-20T19:50:39.754Z,84.23
2022-11-20T19:52:41.879Z,84.15
2022-11-20T19:54:43.333Z,83.70
2022-11-20T19:56:45.552Z,83.60
2022-11-20T19:58:47.221Z,83.38
2022-11-20T20:00:48.674Z,83.35
2022-11-20T20:02:50.115Z,83.26
2022-11-20T20:04:51.559Z,83.56
2022-11-20T20:06:53.027Z,83.50
2022-11-20T20:09:06.489Z,83.07
2022-11-20T20:11:15.253Z,83.26
2022-11-20T20:13:16.676Z,83.06
2022-11-20T20:15:18.119Z,82.89
2022-11-20T20:17:19.573Z,82.90
2022-11-20T20:19:21.046Z,83.24
2022-11-20T20:21:22.639Z,83.34
2022-11-20T20:23:24.061Z,83.32
2022-11-20T20:25:25.480Z,83.70
2022-11-20T20:27:26.921Z,83.66
2022-11-20T20:29:28.403Z,83.63
2022-11-20T20:31:32.431Z,82.88
2022-11-20T20:33:33.904Z,82.63
2022-11-20T20:35:39.680Z,82.61
2022-11-20T20:37:41.199Z,82.55
2022-11-20T20:39:42.636Z,82.66
2022-11-20T20:41:44.102Z,82.72
2022-11-20T20:44:04.310Z,82.60
2022-11-20T20:46:07.878Z,82.80
2022-11-20T20:48:09.344Z,82.99
2022-11-20T20:50:11.907Z,82.72
2022-11-20T20:52:13.604Z,82.59
2022-11-20T20:54:15.075Z,82.30
2022-11-20T20:56:17.702Z,81.99
2022-11-20T20:58:19.160Z,81.37
2022-11-20T21:00:22.193Z,81.42
2022-11-20T21:02:24.141Z,81.90
2022-11-20T21:04:25.666Z,82.02
2022-11-20T21:06:27.289Z,82.20
2022-11-20T21:08:29.310Z,82.07
2022-11-20T21:10:31.296Z,82.09
2022-11-20T21:12:32.753Z,81.89
2022-11-20T21:14:34.726Z,82.08
2022-11-20T21:16:41.196Z,81.95
2022-11-20T21:18:42.749Z,82.14
2022-11-20T21:21:04.550Z,82.20
2022-11-20T21:23:10.471Z,82.67
2022-11-20T21:25:11.953Z,82.44
2022-11-20T21:27:13.393Z,82.70
2022-11-20T21:29:15.534Z,82.56
2022-11-20T21:31:21.889Z,82.47
2022-11-20T21:33:23.316Z,82.73
2022-11-20T21:35:24.811Z,82.58
2022-11-20T21:37:26.252Z,82.10
2022-11-20T21:39:27.761Z,81.94
2022-11-20T21:41:31.070Z,82.30
2022-11-20T21:43:32.941Z,82.94
2022-11-20T21:45:34.377Z,83.02
2022-11-20T21:47:35.866Z,83.37
2022-11-20T21:49:39.110Z,82.98
2022-11-20T21:51:40.613Z,83.28
2022-11-20T21:53:43.240Z,83.33
2022-11-20T21:55:53.226Z,83.39
2022-11-20T21:57:54.703Z,82.96
2022-11-20T21:59:56.158Z,82.81
2022-11-20T22:01:57.686Z,82.48
2022-11-20T22:04:02.037Z,82.16
2022-11-20T22:06:04.847Z,81.98
2022-11-20T22:08:06.421Z,82.34
2022-11-20T22:10:08.223Z,82.55
2022-11-20T22:12:09.673Z,82.54
2022-11-20T22:14:20.450Z,83.51
2022-11-20T22:16:22.947Z,84.13
2022-11-20T22:18:24.383Z,84.51
2022-11-20T22:20:25.942Z,84.85
2022-11-20T22:22:27.393Z,84.87
2022-11-20T22:24:28.850Z,85.40
2022-11-20T22:26:39.659Z,85.65
2022-11-20T22:28:42.806Z,85.61
2022-11-20T22:30:44.237Z,86.04
2022-11-20T22:32:45.672Z,86.56
2022-11-20T22:34:47.142Z,86.77
2022-11-20T22:36:48.642Z,86.91
2022-11-20T22:38:50.246Z,87.18
2022-11-20T22:40:51.693Z,87.54
2022-11-20T22:42:53.148Z,87.54
2022-11-20T22:44:54.599Z,87.46
2022-11-20T22:46:56.065Z,86.88
2022-11-20T22:49:02.806Z,87.14
2022-11-20T22:51:06.665Z,87.07
2022-11-20T22:53:08.660Z,87.08
2022-11-20T22:55:13.622Z,86.87
2022-11-20T22:57:17.711Z,87.07
2022-11-20T22:59:19.209Z,87.14
2022-11-20T23:01:22.164Z,87.28
2022-11-20T23:03:23.686Z,86.88
2022-11-20T23:05:25.175Z,86.45
2022-11-20T23:07:26.696Z,86.43
2022-11-20T23:09:28.563Z,86.18
2022-11-20T23:11:31.975Z,85.52
2022-11-20T23:13:34.806Z,85.15
2022-11-20T23:15:36.334Z,84.73
2022-11-20T23:17:37.779Z,84.45
2022-11-20T23:19:39.247Z,84.45
2022-11-20T23:21:42.090Z,84.62
2022-11-20T23:23:47.877Z,84.65
2022-11-20T23:25:49.335Z,84.32
2022-11-20T23:27:50.765Z,84.26
2022-11-20T23:29:52.206Z,84.27
2022-11-20T23:31:53.712Z,84.71
2022-11-20T23:33:55.444Z,84.40
2022-11-20T23:35:57.226Z,84.39
2022-11-20T23:37:58.687Z,84.82
2022-11-20T23:40:00.130Z,84.78
2022-11-20T23:42:01.576Z,84.80
2022-11-20T23:44:03.047Z,84.63
2022-11-20T23:46:05.248Z,84.62
2022-11-20T23:48:07.185Z,84.14
2022-11-20T23:50:08.729Z,83.93
2022-11-20T23:52:10.527Z,83.69
2022-11-20T23:54:11.993Z,83.60
2022-11-20T23:56:16.282Z,83.47
2022-11-20T23:58:17.786Z,83.31
